sensor_id;sensor_type;location;lat;lon;timestamp;temperature;humidity
6357;DHT22;3211;53.452;-2.264;2023-12-20T00:01:13;8.70;99.90
6357;DHT22;3211;53.452;-2.264;2023-12-20T00:04:01;8.70;99.90
6357;DHT22;3211;53.452;-2.264;2023-12-20T00:06:48;8.70;99.90
6357;DHT22;3211;53.452;-2.264;2023-12-20T00:09:37;8.80;99.90
6357;DHT22;3211;53.452;-2.264;2023-12-20T00:12:24;8.80;99.90
6357;DHT22;3211;53.452;-2.264;2023-12-20T00:15:12;8.70;99.90
6357;DHT22;3211;53.452;-2.264;2023-12-20T00:17:59;8.70;99.90
6357;DHT22;3211;53.452;-2.264;2023-12-20T00:20:47;8.80;99.90
6357;DHT22;3211;53.452;-2.264;2023-12-20T00:23:34;8.70;99.90
6357;DHT22;3211;53.452;-2.264;2023-12-20T00:26:23;8.80;99.90
6357;DHT22;3211;53.452;-2.264;2023-12-20T00:29:10;8.80;99.90
6357;DHT22;3211;53.452;-2.264;2023-12-20T00:31:57;8.80;99.90
6357;DHT22;3211;53.452;-2.264;2023-12-20T00:34:44;8.80;99.90
6357;DHT22;3211;53.452;-2.264;2023-12-20T00:37:32;8.80;99.90
6357;DHT22;3211;53.452;-2.264;2023-12-20T00:40:19;8.80;99.90
6357;DHT22;3211;53.452;-2.264;2023-12-20T00:43:09;8.80;99.90
6357;DHT22;3211;53.452;-2.264;2023-12-20T00:45:57;8.90;99.90
6357;DHT22;3211;53.452;-2.264;2023-12-20T00:48:45;8.90;99.90
6357;DHT22;3211;53.452;-2.264;2023-12-20T00:51:33;8.80;99.90
6357;DHT22;3211;53.452;-2.264;2023-12-20T00:54:20;8.80;99.90
6357;DHT22;3211;53.452;-2.264;2023-12-20T00:57:07;8.80;99.90
6357;DHT22;3211;53.452;-2.264;2023-12-20T00:59:56;8.80;99.90
6357;DHT22;3211;53.452;-2.264;2023-12-20T01:02:43;8.90;99.90
6357;DHT22;3211;53.452;-2.264;2023-12-20T01:05:32;8.90;99.90
6357;DHT22;3211;53.452;-2.264;2023-12-20T01:08:19;8.90;99.90
6357;DHT22;3211;53.452;-2.264;2023-12-20T01:11:07;8.90;99.90
6357;DHT22;3211;53.452;-2.264;2023-12-20T01:13:54;8.90;99.90
6357;DHT22;3211;53.452;-2.264;2023-12-20T01:16:43;8.90;1.00
6357;DHT22;3211;53.452;-2.264;2023-12-20T01:19:30;8.90;1.00
6357;DHT22;3211;53.452;-2.264;2023-12-20T01:22:17;8.80;1.00
6357;DHT22;3211;53.452;-2.264;2023-12-20T01:25:05;8.80;1.00
6357;DHT22;3211;53.452;-2.264;2023-12-20T01:27:52;8.80;1.00
6357;DHT22;3211;53.452;-2.264;2023-12-20T01:30:40;8.80;1.00
6357;DHT22;3211;53.452;-2.264;2023-12-20T01:33:28;8.80;1.00
6357;DHT22;3211;53.452;-2.264;2023-12-20T01:36:16;8.90;1.00
6357;DHT22;3211;53.452;-2.264;2023-12-20T01:39:03;8.90;1.00
6357;DHT22;3211;53.452;-2.264;2023-12-20T01:41:50;8.90;1.00
6357;DHT22;3211;53.452;-2.264;2023-12-20T01:44:38;8.90;1.00
6357;DHT22;3211;53.452;-2.264;2023-12-20T01:47:25;8.90;1.00
6357;DHT22;3211;53.452;-2.264;2023-12-20T01:50:15;8.90;1.00
6357;DHT22;3211;53.452;-2.264;2023-12-20T01:53:02;8.90;1.00
6357;DHT22;3211;53.452;-2.264;2023-12-20T01:55:52;8.90;1.00
6357;DHT22;3211;53.452;-2.264;2023-12-20T01:58:45;9.00;1.00
6357;DHT22;3211;53.452;-2.264;2023-12-20T02:01:33;9.00;1.00
6357;DHT22;3211;53.452;-2.264;2023-12-20T02:04:21;9.00;1.00
6357;DHT22;3211;53.452;-2.264;2023-12-20T02:07:11;9.00;1.00
6357;DHT22;3211;53.452;-2.264;2023-12-20T02:09:58;9.00;1.00
6357;DHT22;3211;53.452;-2.264;2023-12-20T02:12:45;9.00;1.00
6357;DHT22;3211;53.452;-2.264;2023-12-20T02:15:32;9.00;1.00
6357;DHT22;3211;53.452;-2.264;2023-12-20T02:18:20;9.00;1.00
6357;DHT22;3211;53.452;-2.264;2023-12-20T02:21:07;9.10;1.00
6357;DHT22;3211;53.452;-2.264;2023-12-20T02:23:57;9.10;99.90
6357;DHT22;3211;53.452;-2.264;2023-12-20T02:26:45;9.10;99.90
6357;DHT22;3211;53.452;-2.264;2023-12-20T02:29:33;9.10;99.90
6357;DHT22;3211;53.452;-2.264;2023-12-20T02:32:21;9.10;1.00
6357;DHT22;3211;53.452;-2.264;2023-12-20T02:35:08;9.20;99.90
6357;DHT22;3211;53.452;-2.264;2023-12-20T02:37:55;9.20;99.90
6357;DHT22;3211;53.452;-2.264;2023-12-20T02:40:44;9.20;1.00
6357;DHT22;3211;53.452;-2.264;2023-12-20T02:43:31;9.20;1.00
6357;DHT22;3211;53.452;-2.264;2023-12-20T02:46:18;9.20;1.00
6357;DHT22;3211;53.452;-2.264;2023-12-20T02:49:06;9.20;1.00
6357;DHT22;3211;53.452;-2.264;2023-12-20T02:51:53;9.20;1.00
6357;DHT22;3211;53.452;-2.264;2023-12-20T02:54:41;9.20;1.00
6357;DHT22;3211;53.452;-2.264;2023-12-20T02:57:29;9.20;1.00
6357;DHT22;3211;53.452;-2.264;2023-12-20T03:00:17;9.20;1.00
6357;DHT22;3211;53.452;-2.264;2023-12-20T03:03:05;9.30;1.00
6357;DHT22;3211;53.452;-2.264;2023-12-20T03:05:52;9.30;1.00
6357;DHT22;3211;53.452;-2.264;2023-12-20T03:08:39;9.30;1.00
6357;DHT22;3211;53.452;-2.264;2023-12-20T03:11:27;9.30;1.00
6357;DHT22;3211;53.452;-2.264;2023-12-20T03:14:16;9.30;1.00
6357;DHT22;3211;53.452;-2.264;2023-12-20T03:17:03;9.30;1.00
6357;DHT22;3211;53.452;-2.264;2023-12-20T03:19:50;9.40;1.00
6357;DHT22;3211;53.452;-2.264;2023-12-20T03:22:38;9.30;1.00
6357;DHT22;3211;53.452;-2.264;2023-12-20T03:25:25;9.40;1.00
6357;DHT22;3211;53.452;-2.264;2023-12-20T03:28:14;9.40;1.00
6357;DHT22;3211;53.452;-2.264;2023-12-20T03:31:04;9.40;1.00
6357;DHT22;3211;53.452;-2.264;2023-12-20T03:33:51;9.50;1.00
6357;DHT22;3211;53.452;-2.264;2023-12-20T03:36:40;9.50;1.00
6357;DHT22;3211;53.452;-2.264;2023-12-20T03:39:27;9.60;1.00
6357;DHT22;3211;53.452;-2.264;2023-12-20T03:42:14;9.60;1.00
6357;DHT22;3211;53.452;-2.264;2023-12-20T03:45:02;9.60;1.00
6357;DHT22;3211;53.452;-2.264;2023-12-20T03:47:50;9.60;1.00
6357;DHT22;3211;53.452;-2.264;2023-12-20T03:50:40;9.60;1.00
6357;DHT22;3211;53.452;-2.264;2023-12-20T03:53:28;9.60;1.00
6357;DHT22;3211;53.452;-2.264;2023-12-20T03:56:15;9.60;1.00
6357;DHT22;3211;53.452;-2.264;2023-12-20T03:59:02;9.60;1.00
6357;DHT22;3211;53.452;-2.264;2023-12-20T04:01:50;9.60;1.00
6357;DHT22;3211;53.452;-2.264;2023-12-20T04:04:38;9.60;1.00
6357;DHT22;3211;53.452;-2.264;2023-12-20T04:07:26;9.60;1.00
6357;DHT22;3211;53.452;-2.264;2023-12-20T04:10:13;9.60;1.00
6357;DHT22;3211;53.452;-2.264;2023-12-20T04:13:00;9.60;1.00
6357;DHT22;3211;53.452;-2.264;2023-12-20T04:15:47;9.60;1.00
6357;DHT22;3211;53.452;-2.264;2023-12-20T04:18:36;9.70;1.00
6357;DHT22;3211;53.452;-2.264;2023-12-20T04:21:25;9.70;1.00
6357;DHT22;3211;53.452;-2.264;2023-12-20T04:24:12;9.70;1.00
6357;DHT22;3211;53.452;-2.264;2023-12-20T04:27:00;9.70;1.00
6357;DHT22;3211;53.452;-2.264;2023-12-20T04:29:47;9.70;1.00
6357;DHT22;3211;53.452;-2.264;2023-12-20T04:32:34;9.60;1.00
6357;DHT22;3211;53.452;-2.264;2023-12-20T04:35:22;9.70;1.00
6357;DHT22;3211;53.452;-2.264;2023-12-20T04:38:10;9.70;1.00
6357;DHT22;3211;53.452;-2.264;2023-12-20T04:40:57;9.60;1.00
6357;DHT22;3211;53.452;-2.264;2023-12-20T04:43:45;9.60;1.00
6357;DHT22;3211;53.452;-2.264;2023-12-20T04:46:32;9.60;5.50
6357;DHT22;3211;53.452;-2.264;2023-12-20T04:49:19;9.60;1.20
6357;DHT22;3211;53.452;-2.264;2023-12-20T04:52:07;9.70;1.00
6357;DHT22;3211;53.452;-2.264;2023-12-20T04:54:55;9.70;1.00
6357;DHT22;3211;53.452;-2.264;2023-12-20T04:57:42;9.70;1.00
6357;DHT22;3211;53.452;-2.264;2023-12-20T05:00:30;9.70;1.00
6357;DHT22;3211;53.452;-2.264;2023-12-20T05:03:17;9.70;1.00
6357;DHT22;3211;53.452;-2.264;2023-12-20T05:06:04;9.70;1.00
6357;DHT22;3211;53.452;-2.264;2023-12-20T05:08:52;9.70;1.00
6357;DHT22;3211;53.452;-2.264;2023-12-20T05:11:40;9.70;1.00
6357;DHT22;3211;53.452;-2.264;2023-12-20T05:14:28;9.70;1.00
6357;DHT22;3211;53.452;-2.264;2023-12-20T05:17:15;9.70;1.00
6357;DHT22;3211;53.452;-2.264;2023-12-20T05:20:03;9.70;1.00
6357;DHT22;3211;53.452;-2.264;2023-12-20T05:22:50;9.70;1.00
6357;DHT22;3211;53.452;-2.264;2023-12-20T05:25:37;9.70;1.00
6357;DHT22;3211;53.452;-2.264;2023-12-20T05:28:26;9.70;1.00
6357;DHT22;3211;53.452;-2.264;2023-12-20T05:31:13;9.70;1.00
6357;DHT22;3211;53.452;-2.264;2023-12-20T05:34:01;9.70;1.00
6357;DHT22;3211;53.452;-2.264;2023-12-20T05:36:48;9.70;1.00
6357;DHT22;3211;53.452;-2.264;2023-12-20T05:39:35;9.70;1.00
6357;DHT22;3211;53.452;-2.264;2023-12-20T05:42:22;9.70;1.00
6357;DHT22;3211;53.452;-2.264;2023-12-20T05:45:11;9.70;1.00
6357;DHT22;3211;53.452;-2.264;2023-12-20T05:47:58;9.70;1.00
6357;DHT22;3211;53.452;-2.264;2023-12-20T05:50:46;9.70;1.00
6357;DHT22;3211;53.452;-2.264;2023-12-20T05:53:33;9.80;1.00
6357;DHT22;3211;53.452;-2.264;2023-12-20T05:56:20;9.70;1.00
6357;DHT22;3211;53.452;-2.264;2023-12-20T05:59:08;9.70;1.00
6357;DHT22;3211;53.452;-2.264;2023-12-20T06:01:56;9.60;1.00
6357;DHT22;3211;53.452;-2.264;2023-12-20T06:04:44;9.60;1.00
6357;DHT22;3211;53.452;-2.264;2023-12-20T06:07:31;9.60;1.00
6357;DHT22;3211;53.452;-2.264;2023-12-20T06:10:18;9.60;1.00
6357;DHT22;3211;53.452;-2.264;2023-12-20T06:13:06;9.60;1.00
6357;DHT22;3211;53.452;-2.264;2023-12-20T06:15:54;9.60;1.00
6357;DHT22;3211;53.452;-2.264;2023-12-20T06:18:43;9.60;1.00
6357;DHT22;3211;53.452;-2.264;2023-12-20T06:21:30;9.60;1.00
6357;DHT22;3211;53.452;-2.264;2023-12-20T06:24:17;9.60;1.00
6357;DHT22;3211;53.452;-2.264;2023-12-20T06:27:04;9.60;1.00
6357;DHT22;3211;53.452;-2.264;2023-12-20T06:29:52;9.60;1.00
6357;DHT22;3211;53.452;-2.264;2023-12-20T06:32:39;9.60;1.00
6357;DHT22;3211;53.452;-2.264;2023-12-20T06:35:29;9.60;1.00
6357;DHT22;3211;53.452;-2.264;2023-12-20T06:38:17;9.60;1.00
6357;DHT22;3211;53.452;-2.264;2023-12-20T06:41:05;9.60;94.00
6357;DHT22;3211;53.452;-2.264;2023-12-20T06:43:52;9.50;99.90
6357;DHT22;3211;53.452;-2.264;2023-12-20T06:46:40;9.60;72.10
6357;DHT22;3211;53.452;-2.264;2023-12-20T06:49:27;9.60;43.20
6357;DHT22;3211;53.452;-2.264;2023-12-20T06:52:16;9.60;99.90
6357;DHT22;3211;53.452;-2.264;2023-12-20T06:55:03;9.50;99.90
6357;DHT22;3211;53.452;-2.264;2023-12-20T06:57:51;9.40;99.90
6357;DHT22;3211;53.452;-2.264;2023-12-20T07:00:38;9.20;99.90
6357;DHT22;3211;53.452;-2.264;2023-12-20T07:03:25;9.10;99.90
6357;DHT22;3211;53.452;-2.264;2023-12-20T07:06:13;9.10;99.90
6357;DHT22;3211;53.452;-2.264;2023-12-20T07:09:03;9.10;99.90
6357;DHT22;3211;53.452;-2.264;2023-12-20T07:11:51;9.10;99.90
6357;DHT22;3211;53.452;-2.264;2023-12-20T07:14:38;9.10;99.90
6357;DHT22;3211;53.452;-2.264;2023-12-20T07:17:25;9.10;99.90
6357;DHT22;3211;53.452;-2.264;2023-12-20T07:20:13;9.10;99.90
6357;DHT22;3211;53.452;-2.264;2023-12-20T07:23:00;9.20;99.90
6357;DHT22;3211;53.452;-2.264;2023-12-20T07:25:49;9.20;99.90
6357;DHT22;3211;53.452;-2.264;2023-12-20T07:28:36;9.20;99.90
6357;DHT22;3211;53.452;-2.264;2023-12-20T07:31:23;9.30;99.90
6357;DHT22;3211;53.452;-2.264;2023-12-20T07:34:11;9.30;99.90
6357;DHT22;3211;53.452;-2.264;2023-12-20T07:36:58;9.30;99.90
6357;DHT22;3211;53.452;-2.264;2023-12-20T07:39:46;9.30;99.90
6357;DHT22;3211;53.452;-2.264;2023-12-20T07:42:34;9.30;99.90
6357;DHT22;3211;53.452;-2.264;2023-12-20T07:45:22;9.30;99.90
6357;DHT22;3211;53.452;-2.264;2023-12-20T07:48:09;9.30;99.90
6357;DHT22;3211;53.452;-2.264;2023-12-20T07:50:56;9.20;99.90
6357;DHT22;3211;53.452;-2.264;2023-12-20T07:53:44;9.20;99.90
6357;DHT22;3211;53.452;-2.264;2023-12-20T07:56:31;9.20;99.90
6357;DHT22;3211;53.452;-2.264;2023-12-20T07:59:20;9.30;99.90
6357;DHT22;3211;53.452;-2.264;2023-12-20T08:02:07;9.20;99.90
6357;DHT22;3211;53.452;-2.264;2023-12-20T08:04:54;9.30;99.90
6357;DHT22;3211;53.452;-2.264;2023-12-20T08:07:42;9.30;99.90
6357;DHT22;3211;53.452;-2.264;2023-12-20T08:10:29;9.40;99.90
6357;DHT22;3211;53.452;-2.264;2023-12-20T08:13:16;9.40;99.90
6357;DHT22;3211;53.452;-2.264;2023-12-20T08:16:06;9.50;85.40
6357;DHT22;3211;53.452;-2.264;2023-12-20T08:18:53;9.50;31.30
6357;DHT22;3211;53.452;-2.264;2023-12-20T08:21:40;9.60;9.50
6357;DHT22;3211;53.452;-2.264;2023-12-20T08:24:27;9.50;29.80
6357;DHT22;3211;53.452;-2.264;2023-12-20T08:27:15;9.50;48.40
6357;DHT22;3211;53.452;-2.264;2023-12-20T08:30:02;9.50;51.70
6357;DHT22;3211;53.452;-2.264;2023-12-20T08:32:51;9.50;91.00
6357;DHT22;3211;53.452;-2.264;2023-12-20T08:35:38;9.50;99.90
6357;DHT22;3211;53.452;-2.264;2023-12-20T08:38:26;9.40;99.90
6357;DHT22;3211;53.452;-2.264;2023-12-20T08:41:13;9.50;99.90
6357;DHT22;3211;53.452;-2.264;2023-12-20T08:44:01;9.50;99.90
6357;DHT22;3211;53.452;-2.264;2023-12-20T08:46:48;9.50;99.90
6357;DHT22;3211;53.452;-2.264;2023-12-20T08:49:37;9.50;99.90
6357;DHT22;3211;53.452;-2.264;2023-12-20T08:52:24;9.50;99.90
6357;DHT22;3211;53.452;-2.264;2023-12-20T08:55:13;9.50;99.90
6357;DHT22;3211;53.452;-2.264;2023-12-20T08:58:02;9.60;99.90
6357;DHT22;3211;53.452;-2.264;2023-12-20T09:00:49;9.60;99.90
6357;DHT22;3211;53.452;-2.264;2023-12-20T09:03:37;9.50;99.90
6357;DHT22;3211;53.452;-2.264;2023-12-20T09:06:25;9.50;99.90
6357;DHT22;3211;53.452;-2.264;2023-12-20T09:09:13;9.50;99.90
6357;DHT22;3211;53.452;-2.264;2023-12-20T09:12:00;9.50;99.90
6357;DHT22;3211;53.452;-2.264;2023-12-20T09:14:48;9.60;99.90
6357;DHT22;3211;53.452;-2.264;2023-12-20T09:17:35;9.60;99.90
6357;DHT22;3211;53.452;-2.264;2023-12-20T09:20:23;9.60;99.90
6357;DHT22;3211;53.452;-2.264;2023-12-20T09:23:11;9.60;99.90
6357;DHT22;3211;53.452;-2.264;2023-12-20T09:25:59;9.60;99.90
6357;DHT22;3211;53.452;-2.264;2023-12-20T09:28:46;9.50;99.90
6357;DHT22;3211;53.452;-2.264;2023-12-20T09:31:33;9.50;99.90
6357;DHT22;3211;53.452;-2.264;2023-12-20T09:34:23;9.50;99.90
6357;DHT22;3211;53.452;-2.264;2023-12-20T09:37:11;9.50;99.90
6357;DHT22;3211;53.452;-2.264;2023-12-20T09:40:00;9.50;99.90
6357;DHT22;3211;53.452;-2.264;2023-12-20T09:42:51;9.50;99.90
6357;DHT22;3211;53.452;-2.264;2023-12-20T09:45:46;9.40;99.90
6357;DHT22;3211;53.452;-2.264;2023-12-20T09:48:34;9.40;99.90
6357;DHT22;3211;53.452;-2.264;2023-12-20T09:51:23;9.30;99.90
6357;DHT22;3211;53.452;-2.264;2023-12-20T09:54:11;9.30;99.90
6357;DHT22;3211;53.452;-2.264;2023-12-20T09:56:59;9.30;99.90
6357;DHT22;3211;53.452;-2.264;2023-12-20T09:59:46;9.30;99.90
6357;DHT22;3211;53.452;-2.264;2023-12-20T10:02:34;9.30;99.90
6357;DHT22;3211;53.452;-2.264;2023-12-20T10:05:27;9.30;99.90
6357;DHT22;3211;53.452;-2.264;2023-12-20T10:08:15;9.30;99.90
6357;DHT22;3211;53.452;-2.264;2023-12-20T10:11:02;9.30;99.90
6357;DHT22;3211;53.452;-2.264;2023-12-20T10:13:51;9.30;99.90
6357;DHT22;3211;53.452;-2.264;2023-12-20T10:16:38;9.30;99.90
6357;DHT22;3211;53.452;-2.264;2023-12-20T10:19:26;9.30;99.90
6357;DHT22;3211;53.452;-2.264;2023-12-20T10:22:13;9.30;99.90
6357;DHT22;3211;53.452;-2.264;2023-12-20T10:25:00;9.30;99.90
6357;DHT22;3211;53.452;-2.264;2023-12-20T10:27:49;9.40;99.90
6357;DHT22;3211;53.452;-2.264;2023-12-20T10:30:39;9.40;99.90
6357;DHT22;3211;53.452;-2.264;2023-12-20T10:33:28;9.40;99.90
6357;DHT22;3211;53.452;-2.264;2023-12-20T10:36:15;9.40;99.90
6357;DHT22;3211;53.452;-2.264;2023-12-20T10:39:03;9.40;99.90
6357;DHT22;3211;53.452;-2.264;2023-12-20T10:41:51;9.50;99.90
6357;DHT22;3211;53.452;-2.264;2023-12-20T10:44:39;9.60;99.90
6357;DHT22;3211;53.452;-2.264;2023-12-20T10:47:28;9.60;99.90
6357;DHT22;3211;53.452;-2.264;2023-12-20T10:50:17;9.70;99.90
6357;DHT22;3211;53.452;-2.264;2023-12-20T10:53:05;9.80;99.90
6357;DHT22;3211;53.452;-2.264;2023-12-20T10:55:55;9.90;99.90
6357;DHT22;3211;53.452;-2.264;2023-12-20T10:58:43;9.90;99.90
6357;DHT22;3211;53.452;-2.264;2023-12-20T11:01:31;9.90;99.90
6357;DHT22;3211;53.452;-2.264;2023-12-20T11:04:23;10.00;99.90
6357;DHT22;3211;53.452;-2.264;2023-12-20T11:07:19;10.00;99.90
6357;DHT22;3211;53.452;-2.264;2023-12-20T11:10:17;10.00;99.90
6357;DHT22;3211;53.452;-2.264;2023-12-20T11:13:10;10.10;99.90
6357;DHT22;3211;53.452;-2.264;2023-12-20T11:16:00;10.20;99.90
6357;DHT22;3211;53.452;-2.264;2023-12-20T11:18:48;10.20;99.90
6357;DHT22;3211;53.452;-2.264;2023-12-20T11:21:39;10.20;99.90
6357;DHT22;3211;53.452;-2.264;2023-12-20T11:24:27;10.20;99.90
6357;DHT22;3211;53.452;-2.264;2023-12-20T11:27:14;10.30;99.90
6357;DHT22;3211;53.452;-2.264;2023-12-20T11:30:03;10.30;99.90
6357;DHT22;3211;53.452;-2.264;2023-12-20T11:32:52;10.30;99.90
6357;DHT22;3211;53.452;-2.264;2023-12-20T11:35:40;10.30;99.90
6357;DHT22;3211;53.452;-2.264;2023-12-20T11:38:36;10.20;99.90
6357;DHT22;3211;53.452;-2.264;2023-12-20T11:41:24;10.20;99.90
6357;DHT22;3211;53.452;-2.264;2023-12-20T11:44:11;10.30;99.90
6357;DHT22;3211;53.452;-2.264;2023-12-20T11:46:59;10.30;99.90
6357;DHT22;3211;53.452;-2.264;2023-12-20T11:49:47;10.20;99.90
6357;DHT22;3211;53.452;-2.264;2023-12-20T11:52:35;10.20;99.90
6357;DHT22;3211;53.452;-2.264;2023-12-20T11:55:24;10.30;99.90
6357;DHT22;3211;53.452;-2.264;2023-12-20T11:58:11;10.30;99.90
6357;DHT22;3211;53.452;-2.264;2023-12-20T12:00:59;10.30;99.90
6357;DHT22;3211;53.452;-2.264;2023-12-20T12:03:48;10.30;99.90
6357;DHT22;3211;53.452;-2.264;2023-12-20T12:06:35;10.30;99.90
6357;DHT22;3211;53.452;-2.264;2023-12-20T12:09:23;10.30;99.90
6357;DHT22;3211;53.452;-2.264;2023-12-20T12:12:12;10.30;99.90
6357;DHT22;3211;53.452;-2.264;2023-12-20T12:14:59;10.30;99.90
6357;DHT22;3211;53.452;-2.264;2023-12-20T12:17:53;10.30;99.90
6357;DHT22;3211;53.452;-2.264;2023-12-20T12:20:40;10.40;99.90
6357;DHT22;3211;53.452;-2.264;2023-12-20T12:23:28;10.40;99.90
6357;DHT22;3211;53.452;-2.264;2023-12-20T12:26:15;10.40;99.90
6357;DHT22;3211;53.452;-2.264;2023-12-20T12:29:05;10.40;99.90
6357;DHT22;3211;53.452;-2.264;2023-12-20T12:31:54;10.40;99.90
6357;DHT22;3211;53.452;-2.264;2023-12-20T12:34:41;10.30;99.90
6357;DHT22;3211;53.452;-2.264;2023-12-20T12:37:29;10.30;99.90
6357;DHT22;3211;53.452;-2.264;2023-12-20T12:40:17;10.30;99.90
6357;DHT22;3211;53.452;-2.264;2023-12-20T12:43:05;10.30;99.90
6357;DHT22;3211;53.452;-2.264;2023-12-20T12:45:54;10.20;99.90
6357;DHT22;3211;53.452;-2.264;2023-12-20T12:48:41;10.20;99.90
6357;DHT22;3211;53.452;-2.264;2023-12-20T12:51:29;10.20;99.90
6357;DHT22;3211;53.452;-2.264;2023-12-20T12:54:17;10.10;99.90
6357;DHT22;3211;53.452;-2.264;2023-12-20T12:57:05;10.10;99.90
6357;DHT22;3211;53.452;-2.264;2023-12-20T12:59:52;10.10;99.90
6357;DHT22;3211;53.452;-2.264;2023-12-20T13:02:41;10.10;99.90
6357;DHT22;3211;53.452;-2.264;2023-12-20T13:05:29;10.10;99.90
6357;DHT22;3211;53.452;-2.264;2023-12-20T13:08:17;10.10;99.90
6357;DHT22;3211;53.452;-2.264;2023-12-20T13:11:04;10.20;99.90
6357;DHT22;3211;53.452;-2.264;2023-12-20T13:13:52;10.20;99.90
6357;DHT22;3211;53.452;-2.264;2023-12-20T13:16:39;10.20;99.90
6357;DHT22;3211;53.452;-2.264;2023-12-20T13:19:28;10.20;99.90
6357;DHT22;3211;53.452;-2.264;2023-12-20T13:22:16;10.20;99.90
6357;DHT22;3211;53.452;-2.264;2023-12-20T13:25:05;10.20;99.90
6357;DHT22;3211;53.452;-2.264;2023-12-20T13:27:53;10.20;99.90
6357;DHT22;3211;53.452;-2.264;2023-12-20T13:30:40;10.10;99.90
6357;DHT22;3211;53.452;-2.264;2023-12-20T13:33:28;10.10;99.90
6357;DHT22;3211;53.452;-2.264;2023-12-20T13:36:16;10.20;99.90
6357;DHT22;3211;53.452;-2.264;2023-12-20T13:39:04;10.30;99.90
6357;DHT22;3211;53.452;-2.264;2023-12-20T13:41:51;10.30;99.90
6357;DHT22;3211;53.452;-2.264;2023-12-20T13:44:39;10.30;99.90
6357;DHT22;3211;53.452;-2.264;2023-12-20T13:47:26;10.30;99.90
6357;DHT22;3211;53.452;-2.264;2023-12-20T13:50:14;10.30;99.90
6357;DHT22;3211;53.452;-2.264;2023-12-20T13:53:03;10.30;99.90
6357;DHT22;3211;53.452;-2.264;2023-12-20T13:55:51;10.30;99.90
6357;DHT22;3211;53.452;-2.264;2023-12-20T13:58:38;10.30;99.90
6357;DHT22;3211;53.452;-2.264;2023-12-20T14:01:25;10.30;99.90
6357;DHT22;3211;53.452;-2.264;2023-12-20T14:04:13;10.20;99.90
6357;DHT22;3211;53.452;-2.264;2023-12-20T14:07:01;10.20;99.90
6357;DHT22;3211;53.452;-2.264;2023-12-20T14:09:50;10.20;99.90
6357;DHT22;3211;53.452;-2.264;2023-12-20T14:12:38;10.20;99.90
6357;DHT22;3211;53.452;-2.264;2023-12-20T14:15:25;10.20;99.90
6357;DHT22;3211;53.452;-2.264;2023-12-20T14:18:13;10.10;99.90
6357;DHT22;3211;53.452;-2.264;2023-12-20T14:21:01;10.20;99.90
6357;DHT22;3211;53.452;-2.264;2023-12-20T14:23:48;10.20;99.90
6357;DHT22;3211;53.452;-2.264;2023-12-20T14:26:37;10.20;99.90
6357;DHT22;3211;53.452;-2.264;2023-12-20T14:29:24;10.20;99.90
6357;DHT22;3211;53.452;-2.264;2023-12-20T14:32:11;10.30;99.90
6357;DHT22;3211;53.452;-2.264;2023-12-20T14:35:00;10.30;99.90
6357;DHT22;3211;53.452;-2.264;2023-12-20T14:37:48;10.40;99.90
6357;DHT22;3211;53.452;-2.264;2023-12-20T14:40:36;10.40;99.90
6357;DHT22;3211;53.452;-2.264;2023-12-20T14:43:26;10.40;99.90
6357;DHT22;3211;53.452;-2.264;2023-12-20T14:46:13;10.40;99.90
6357;DHT22;3211;53.452;-2.264;2023-12-20T14:49:01;10.50;99.90
6357;DHT22;3211;53.452;-2.264;2023-12-20T14:51:49;10.50;99.90
6357;DHT22;3211;53.452;-2.264;2023-12-20T14:54:36;10.60;99.90
6357;DHT22;3211;53.452;-2.264;2023-12-20T14:57:24;10.60;99.90
6357;DHT22;3211;53.452;-2.264;2023-12-20T15:00:13;10.60;99.90
6357;DHT22;3211;53.452;-2.264;2023-12-20T15:03:02;10.70;99.90
6357;DHT22;3211;53.452;-2.264;2023-12-20T15:05:50;10.60;99.90
6357;DHT22;3211;53.452;-2.264;2023-12-20T15:08:38;10.60;99.90
6357;DHT22;3211;53.452;-2.264;2023-12-20T15:11:26;10.60;99.90
6357;DHT22;3211;53.452;-2.264;2023-12-20T15:14:13;10.60;99.90
6357;DHT22;3211;53.452;-2.264;2023-12-20T15:17:06;10.60;99.90
6357;DHT22;3211;53.452;-2.264;2023-12-20T15:19:53;10.60;99.90
6357;DHT22;3211;53.452;-2.264;2023-12-20T15:22:41;10.70;99.90
6357;DHT22;3211;53.452;-2.264;2023-12-20T15:25:31;10.60;99.90
6357;DHT22;3211;53.452;-2.264;2023-12-20T15:28:18;10.60;99.90
6357;DHT22;3211;53.452;-2.264;2023-12-20T15:31:06;10.60;99.90
6357;DHT22;3211;53.452;-2.264;2023-12-20T15:33:55;10.60;99.90
6357;DHT22;3211;53.452;-2.264;2023-12-20T15:36:43;10.50;99.90
6357;DHT22;3211;53.452;-2.264;2023-12-20T15:39:30;10.40;99.90
6357;DHT22;3211;53.452;-2.264;2023-12-20T15:42:17;10.30;99.90
6357;DHT22;3211;53.452;-2.264;2023-12-20T15:45:06;10.30;99.90
6357;DHT22;3211;53.452;-2.264;2023-12-20T15:47:54;10.30;99.90
6357;DHT22;3211;53.452;-2.264;2023-12-20T15:50:42;10.40;99.90
6357;DHT22;3211;53.452;-2.264;2023-12-20T15:53:30;10.50;99.90
6357;DHT22;3211;53.452;-2.264;2023-12-20T15:56:17;10.50;99.90
6357;DHT22;3211;53.452;-2.264;2023-12-20T15:59:05;10.50;99.90
6357;DHT22;3211;53.452;-2.264;2023-12-20T16:01:52;10.50;99.90
6357;DHT22;3211;53.452;-2.264;2023-12-20T16:04:39;10.30;99.90
6357;DHT22;3211;53.452;-2.264;2023-12-20T16:07:28;10.20;99.90
6357;DHT22;3211;53.452;-2.264;2023-12-20T16:10:15;10.30;99.90
6357;DHT22;3211;53.452;-2.264;2023-12-20T16:13:04;10.20;99.90
6357;DHT22;3211;53.452;-2.264;2023-12-20T16:15:52;10.20;99.90
6357;DHT22;3211;53.452;-2.264;2023-12-20T16:18:40;10.30;99.90
6357;DHT22;3211;53.452;-2.264;2023-12-20T16:21:27;10.30;99.90
6357;DHT22;3211;53.452;-2.264;2023-12-20T16:24:15;10.30;99.90
6357;DHT22;3211;53.452;-2.264;2023-12-20T16:27:03;10.30;99.90
6357;DHT22;3211;53.452;-2.264;2023-12-20T16:29:51;10.20;99.90
6357;DHT22;3211;53.452;-2.264;2023-12-20T16:32:38;10.30;99.90
6357;DHT22;3211;53.452;-2.264;2023-12-20T16:35:25;10.30;99.90
6357;DHT22;3211;53.452;-2.264;2023-12-20T16:38:13;10.30;99.90
6357;DHT22;3211;53.452;-2.264;2023-12-20T16:41:02;10.30;99.90
6357;DHT22;3211;53.452;-2.264;2023-12-20T16:43:49;10.30;99.90
6357;DHT22;3211;53.452;-2.264;2023-12-20T16:46:37;10.40;99.90
6357;DHT22;3211;53.452;-2.264;2023-12-20T16:49:24;10.40;99.90
6357;DHT22;3211;53.452;-2.264;2023-12-20T16:52:11;10.50;99.90
6357;DHT22;3211;53.452;-2.264;2023-12-20T16:54:59;10.50;99.90
6357;DHT22;3211;53.452;-2.264;2023-12-20T16:57:48;10.50;99.90
6357;DHT22;3211;53.452;-2.264;2023-12-20T17:00:35;10.50;99.90
6357;DHT22;3211;53.452;-2.264;2023-12-20T17:03:22;10.40;99.90
6357;DHT22;3211;53.452;-2.264;2023-12-20T17:06:12;10.40;99.90
6357;DHT22;3211;53.452;-2.264;2023-12-20T17:08:59;10.40;99.90
6357;DHT22;3211;53.452;-2.264;2023-12-20T17:11:46;10.50;99.90
6357;DHT22;3211;53.452;-2.264;2023-12-20T17:14:35;10.50;99.90
6357;DHT22;3211;53.452;-2.264;2023-12-20T17:17:22;10.50;99.90
6357;DHT22;3211;53.452;-2.264;2023-12-20T17:20:10;10.60;99.90
6357;DHT22;3211;53.452;-2.264;2023-12-20T17:22:57;10.60;99.90
6357;DHT22;3211;53.452;-2.264;2023-12-20T17:25:45;10.60;99.90
6357;DHT22;3211;53.452;-2.264;2023-12-20T17:28:32;10.70;99.90
6357;DHT22;3211;53.452;-2.264;2023-12-20T17:31:20;10.60;99.90
6357;DHT22;3211;53.452;-2.264;2023-12-20T17:34:08;10.70;99.90
6357;DHT22;3211;53.452;-2.264;2023-12-20T17:36:57;10.70;99.90
6357;DHT22;3211;53.452;-2.264;2023-12-20T17:39:44;10.60;99.90
6357;DHT22;3211;53.452;-2.264;2023-12-20T17:42:31;10.70;99.90
6357;DHT22;3211;53.452;-2.264;2023-12-20T17:45:18;10.70;99.90
6357;DHT22;3211;53.452;-2.264;2023-12-20T17:48:07;10.70;99.90
6357;DHT22;3211;53.452;-2.264;2023-12-20T17:50:55;10.70;99.90
6357;DHT22;3211;53.452;-2.264;2023-12-20T17:53:42;10.70;99.90
6357;DHT22;3211;53.452;-2.264;2023-12-20T17:56:30;10.60;99.90
6357;DHT22;3211;53.452;-2.264;2023-12-20T17:59:17;10.70;99.90
6357;DHT22;3211;53.452;-2.264;2023-12-20T18:02:05;10.70;99.90
6357;DHT22;3211;53.452;-2.264;2023-12-20T18:04:53;10.70;99.90
6357;DHT22;3211;53.452;-2.264;2023-12-20T18:07:41;10.80;99.90
6357;DHT22;3211;53.452;-2.264;2023-12-20T18:10:30;10.80;99.90
6357;DHT22;3211;53.452;-2.264;2023-12-20T18:13:17;10.80;99.90